nws-alerts: Checking more than four warning/county codes can delay the loading of your pages. You should use a cron job to get the data.
EllijayWeather Station Historical Data
Daily Summary for January 19, 2019 Units:  Metric    English   Both
Daily Weekly Monthly Yearly Custom
  High: Low: Average:
Temperature: 14.3 °C 4.1 °C 10.1 °C
Dew Point: 13.7 °C 3.8 °C 9.8 °C
Humidity: 100% 92% 98%
Wind Speed: 11.1km/h 0km/h 0.8km/h
Wind Gust: 19.3km/h - -
Wind- - SE
Pressure: 1019.2 hPa 1000.2 hPa -
Precipitation: 33.02 mm    
Historical Graphs
 
 
Tabular Data for January 19, 2019
Time Temperature Dew Point Pressure Wind Wind Speed Wind Gust Humidity Rainfall Rate (Hourly) solar
00:04 4.4 °C 4.1 °C 1019.2 hPa Calm     98% 0 mm meteobridge W/m2
00:09 4.4 °C 4.1 °C 1019.2 hPa Calm     98% 0 mm meteobridge W/m2
00:14 4.4 °C 4.1 °C 1018.8 hPa Calm     98% 0 mm meteobridge W/m2
00:19 4.3 °C 4 °C 1018.8 hPa Calm     98% 0 mm meteobridge W/m2
00:24 4.3 °C 4 °C 1018.8 hPa Calm     98% 0 mm meteobridge W/m2
00:29 4.3 °C 4 °C 1018.8 hPa Calm     98% 0 mm meteobridge W/m2
00:34 4.3 °C 4 °C 1018.8 hPa Calm     98% 0 mm meteobridge W/m2
00:39 4.3 °C 4 °C 1018.8 hPa Calm     98% 0 mm meteobridge W/m2
00:44 4.2 °C 3.9 °C 1018.8 hPa Calm     98% 0 mm meteobridge W/m2
00:49 4.2 °C 3.9 °C 1018.5 hPa Calm     98% 0 mm meteobridge W/m2
00:54 4.2 °C 3.9 °C 1018.5 hPa Calm     98% 0 mm meteobridge W/m2
00:59 4.2 °C 3.9 °C 1018.8 hPa Calm     98% 0 mm meteobridge W/m2
01:04 4.2 °C 3.9 °C 1018.5 hPa Calm     98% 0 mm meteobridge W/m2
01:09 4.1 °C 3.8 °C 1018.2 hPa Calm     98% 0 mm meteobridge W/m2
01:14 4.1 °C 3.8 °C 1017.8 hPa Calm     98% 0 mm meteobridge W/m2
01:19 4.1 °C 3.8 °C 1018.2 hPa Calm     98% 0 mm meteobridge W/m2
01:24 4.2 °C 3.9 °C 1018.2 hPa Calm     98% 0 mm meteobridge W/m2
01:29 4.2 °C 3.9 °C 1018.2 hPa Calm     98% 0 mm meteobridge W/m2
01:34 4.3 °C 4 °C 1018.2 hPa Calm     98% 0 mm meteobridge W/m2
01:39 4.4 °C 4.1 °C 1017.8 hPa Calm     98% 0 mm meteobridge W/m2
01:44 4.4 °C 4.3 °C 1017.8 hPa Calm     99% 0 mm meteobridge W/m2
01:49 4.4 °C 4.3 °C 1017.8 hPa Calm     99% 0 mm meteobridge W/m2
01:54 4.5 °C 4.4 °C 1017.8 hPa Calm     99% 0 mm meteobridge W/m2
01:59 4.8 °C 4.7 °C 1017.8 hPa Calm     99% 0 mm meteobridge W/m2
02:04 4.9 °C 4.8 °C 1018.2 hPa Calm     99% 0 mm meteobridge W/m2
02:09 5.2 °C 5.1 °C 1018.2 hPa Calm     99% 0 mm meteobridge W/m2
02:14 5.3 °C 5.2 °C 1018.2 hPa Calm     99% 0 mm meteobridge W/m2
02:19 5.6 °C 5.5 °C 1018.2 hPa Calm     99% 0 mm meteobridge W/m2
02:24 5.8 °C 5.7 °C 1018.2 hPa Calm     99% 0 mm meteobridge W/m2
02:29 5.9 °C 5.8 °C 1018.2 hPa Calm     99% 0 mm meteobridge W/m2
02:34 6.1 °C 6 °C 1018.2 hPa Calm     99% 0 mm meteobridge W/m2
02:39 6.1 °C 6 °C 1018.2 hPa Calm     99% 0 mm meteobridge W/m2
02:44 6.2 °C 6.1 °C 1017.8 hPa Calm     99% 0 mm meteobridge W/m2
02:49 6.2 °C 6.1 °C 1017.8 hPa Calm     99% 0 mm meteobridge W/m2
02:54 6.3 °C 6.2 °C 1017.8 hPa Calm     99% 0 mm meteobridge W/m2
02:59 6.5 °C 6.4 °C 1017.8 hPa Calm     99% 0 mm meteobridge W/m2
03:04 6.6 °C 6.5 °C 1017.8 hPa Calm     99% 0 mm meteobridge W/m2
03:09 6.6 °C 6.5 °C 1017.8 hPa Calm     99% 0 mm meteobridge W/m2
03:14 6.6 °C 6.5 °C 1017.8 hPa Calm     99% 0 mm meteobridge W/m2
03:19 6.9 °C 6.8 °C 1017.5 hPa Calm     99% 0 mm meteobridge W/m2
03:24 7.4 °C 7.3 °C 1017.2 hPa SE 3.2 km/h 6.4 km/h 99% 0 mm meteobridge W/m2
03:29 8 °C 7.9 °C 1017.2 hPa SE 1.4 km/h 8 km/h 99% 0 mm meteobridge W/m2
03:34 8.3 °C 8.2 °C 1017.5 hPa Calm   6.4 km/h 99% 0 mm meteobridge W/m2
03:39 8.4 °C 8.3 °C 1017.5 hPa SE 7.9 km/h 8 km/h 99% 0 mm meteobridge W/m2
03:44 8.6 °C 8.5 °C 1017.5 hPa Calm   3.2 km/h 99% 0 mm meteobridge W/m2
03:49 8.6 °C 8.5 °C 1017.5 hPa Calm   3.2 km/h 99% 0 mm meteobridge W/m2
03:54 8.7 °C 8.6 °C 1017.2 hPa Calm   3.2 km/h 99% 0 mm meteobridge W/m2
03:59 8.7 °C 8.6 °C 1017.2 hPa SE 3.2 km/h 3.2 km/h 99% 0 mm meteobridge W/m2
04:04 8.7 °C 8.6 °C 1017.2 hPa Calm   9.7 km/h 99% 0 mm meteobridge W/m2
04:09 8.7 °C 8.6 °C 1017.2 hPa SSE 3.2 km/h 6.4 km/h 99% 0 mm meteobridge W/m2
04:14 8.7 °C 8.6 °C 1017.2 hPa Calm     99% 0 mm meteobridge W/m2
04:19 8.8 °C 8.7 °C 1016.8 hPa Calm     99% 0 mm meteobridge W/m2
04:24 8.8 °C 8.7 °C 1016.8 hPa Calm   6.4 km/h 99% 0 mm meteobridge W/m2
04:29 8.8 °C 8.7 °C 1016.8 hPa Calm     99% 0 mm meteobridge W/m2
04:34 8.7 °C 8.6 °C 1016.8 hPa Calm   3.2 km/h 99% 0 mm meteobridge W/m2
04:39 8.8 °C 8.7 °C 1016.5 hPa SSE 1.4 km/h 3.2 km/h 99% 0 mm meteobridge W/m2
04:44 8.8 °C 8.7 °C 1016.5 hPa SSE 3.2 km/h 3.2 km/h 99% 0 mm meteobridge W/m2
04:49 8.9 °C 8.6 °C 1016.5 hPa SE 1.4 km/h 6.4 km/h 98% 0 mm meteobridge W/m2
04:54 8.9 °C 8.6 °C 1015.8 hPa SE 3.2 km/h 3.2 km/h 98% 0 mm meteobridge W/m2
04:59 8.9 °C 8.6 °C 1015.8 hPa Calm   1.6 km/h 98% 0 mm meteobridge W/m2
05:04 8.9 °C 8.6 °C 1015.1 hPa Calm   8 km/h 98% 0 mm meteobridge W/m2
05:09 8.9 °C 8.6 °C 1015.1 hPa East 6.4 km/h 6.4 km/h 98% 0 mm meteobridge W/m2
05:14 9 °C 8.7 °C 1015.1 hPa Calm     98% 0 mm meteobridge W/m2
05:19 8.9 °C 8.6 °C 1015.1 hPa Calm   8 km/h 98% 0 mm meteobridge W/m2
05:24 8.9 °C 8.6 °C 1015.1 hPa Calm     98% 0 mm meteobridge W/m2
05:29 8.9 °C 8.6 °C 1015.1 hPa SE 1.4 km/h 6.4 km/h 98% 0 mm meteobridge W/m2
05:34 9 °C 8.7 °C 1014.8 hPa Calm   6.4 km/h 98% 0 mm meteobridge W/m2
05:39 9 °C 8.7 °C 1014.8 hPa SE 3.2 km/h 8 km/h 98% 0 mm meteobridge W/m2
05:44 9 °C 8.7 °C 1014.8 hPa Calm   6.4 km/h 98% 0 mm meteobridge W/m2
05:49 8.9 °C 8.6 °C 1014.8 hPa SE 7.9 km/h 8 km/h 98% 0 mm meteobridge W/m2
05:54 8.9 °C 8.6 °C 1015.1 hPa SE 3.2 km/h 3.2 km/h 98% 0 mm meteobridge W/m2
05:59 8.9 °C 8.6 °C 1015.1 hPa Calm   3.2 km/h 98% 0 mm meteobridge W/m2
06:04 9 °C 8.7 °C 1015.1 hPa Calm     98% 0 mm meteobridge W/m2
06:09 9 °C 8.7 °C 1015.1 hPa Calm   6.4 km/h 98% 0 mm meteobridge W/m2
06:14 9.1 °C 8.8 °C 1014.8 hPa Calm   3.2 km/h 98% 0 mm meteobridge W/m2
06:19 9.2 °C 8.9 °C 1015.1 hPa Calm   6.4 km/h 98% 0 mm meteobridge W/m2
06:24 9.2 °C 8.9 °C 1014.8 hPa Calm   6.4 km/h 98% 0 mm meteobridge W/m2
06:29 9.2 °C 8.9 °C 1014.4 hPa Calm   8 km/h 98% 0 mm meteobridge W/m2
06:34 9.2 °C 8.9 °C 1014.8 hPa Calm   12.9 km/h 98% 0 mm meteobridge W/m2
06:39 9.2 °C 8.7 °C 1014.4 hPa SE 1.4 km/h 1.6 km/h 97% 0 mm meteobridge W/m2
06:44 9.1 °C 8.8 °C 1014.1 hPa Calm   3.2 km/h 98% 0 mm meteobridge W/m2
06:49 9.1 °C 8.8 °C 1014.1 hPa SE 3.2 km/h 11.3 km/h 98% 0 mm meteobridge W/m2
06:54 9.2 °C 8.9 °C 1014.1 hPa Calm   1.6 km/h 98% 0 mm meteobridge W/m2
06:59 9.2 °C 8.7 °C 1014.1 hPa East 1.4 km/h 3.2 km/h 97% 0 mm meteobridge W/m2
07:04 9.2 °C 8.7 °C 1014.1 hPa Calm   6.4 km/h 97% 0 mm meteobridge W/m2
07:09 9.2 °C 8.7 °C 1014.1 hPa SE 3.2 km/h 6.4 km/h 97% 0 mm meteobridge W/m2
07:14 9.1 °C 8.6 °C 1013.8 hPa Calm   6.4 km/h 97% 0 mm meteobridge W/m2
07:19 9.1 °C 8.6 °C 1013.8 hPa Calm   9.7 km/h 97% 0 mm meteobridge W/m2
07:24 9.1 °C 8.6 °C 1013.8 hPa Calm   8 km/h 97% 0 mm meteobridge W/m2
07:29 9.2 °C 8.7 °C 1013.8 hPa East 3.2 km/h 6.4 km/h 97% 0 mm meteobridge W/m2
07:34 9.2 °C 8.7 °C 1013.4 hPa Calm   8 km/h 97% 0 mm meteobridge W/m2
07:39 9.2 °C 8.7 °C 1013.4 hPa Calm     97% 0 mm meteobridge W/m2
07:44 9.2 °C 8.7 °C 1013.4 hPa Calm   8 km/h 97% 0 mm meteobridge W/m2
07:49 9.3 °C 8.8 °C 1013.1 hPa Calm   8 km/h 97% 0 mm meteobridge W/m2
07:54 9.3 °C 8.8 °C 1013.1 hPa East 3.2 km/h 6.4 km/h 97% 0 mm meteobridge W/m2
07:59 9.4 °C 8.9 °C 1013.4 hPa SSE 1.4 km/h 6.4 km/h 97% 0 mm meteobridge W/m2
08:04 9.4 °C 8.9 °C 1013.1 hPa SE 11.1 km/h 19.3 km/h 97% 0 mm meteobridge W/m2
08:09 9.5 °C 9 °C 1013.4 hPa SSE 7.9 km/h 8 km/h 97% 0 mm meteobridge W/m2
08:14 9.5 °C 9 °C 1013.1 hPa SE 1.4 km/h 9.7 km/h 97% 0 mm meteobridge W/m2
08:19 9.5 °C 9 °C 1012.8 hPa Calm     97% 0 mm meteobridge W/m2
08:24 9.6 °C 9.1 °C 1012.8 hPa SE 3.2 km/h 9.7 km/h 97% 0 mm meteobridge W/m2
08:29 9.6 °C 9.1 °C 1013.1 hPa ESE 3.2 km/h 6.4 km/h 97% 0 mm meteobridge W/m2
08:34 9.6 °C 9.1 °C 1013.1 hPa Calm   8 km/h 97% 0 mm meteobridge W/m2
08:39 9.6 °C 9.1 °C 1012.8 hPa Calm   6.4 km/h 97% 0 mm meteobridge W/m2
08:44 9.6 °C 9.1 °C 1013.1 hPa Calm   8 km/h 97% 0 mm meteobridge W/m2
08:49 9.6 °C 9.1 °C 1013.1 hPa ESE 1.4 km/h 6.4 km/h 97% 0 mm meteobridge W/m2
08:54 9.7 °C 9.1 °C 1012.8 hPa Calm   11.3 km/h 96% 0 mm meteobridge W/m2
08:59 9.8 °C 9.2 °C 1013.1 hPa ESE 3.2 km/h 8 km/h 96% 0 mm meteobridge W/m2
09:04 9.8 °C 9.2 °C 1012.8 hPa SE 3.2 km/h 9.7 km/h 96% 0 mm meteobridge W/m2
09:09 9.7 °C 9.2 °C 1013.1 hPa ESE 3.2 km/h 9.7 km/h 97% 0.51 mm meteobridge W/m2
09:14 9.7 °C 9.2 °C 1013.1 hPa ESE 3.2 km/h 9.7 km/h 97% 0.76 mm meteobridge W/m2
09:19 9.6 °C 9.1 °C 1012.8 hPa Calm   8 km/h 97% 1.78 mm meteobridge W/m2
09:24 9.6 °C 9.1 °C 1012.8 hPa East 9.7 km/h 9.7 km/h 97% 2.29 mm meteobridge W/m2
09:29 9.6 °C 9.1 °C 1012.4 hPa SE 6.4 km/h 8 km/h 97% 2.29 mm meteobridge W/m2
09:34 9.6 °C 9.1 °C 1012.4 hPa SE 7.9 km/h 8 km/h 97% 2.29 mm meteobridge W/m2
09:39 9.6 °C 9.1 °C 1012.4 hPa Calm   11.3 km/h 97% 2.79 mm meteobridge W/m2
09:44 9.6 °C 9.1 °C 1012.4 hPa Calm   8 km/h 97% 3.05 mm meteobridge W/m2
09:49 9.6 °C 9.1 °C 1012.4 hPa SE 6.4 km/h 14.5 km/h 97% 3.05 mm meteobridge W/m2
09:54 9.6 °C 9.1 °C 1012.4 hPa Calm   8 km/h 97% 3.3 mm meteobridge W/m2
09:59 9.6 °C 9.1 °C 1012.4 hPa Calm   6.4 km/h 97% 3.3 mm meteobridge W/m2
10:04 9.6 °C 9.1 °C 1012.8 hPa Calm     97% 3.56 mm meteobridge W/m2
10:09 9.6 °C 9.1 °C 1012.4 hPa ESE 6.4 km/h 11.3 km/h 97% 3.05 mm meteobridge W/m2
10:14 9.6 °C 9.1 °C 1012.4 hPa Calm   1.6 km/h 97% 3.05 mm meteobridge W/m2
10:19 9.6 °C 9.1 °C 1012.8 hPa ESE 6.4 km/h 6.4 km/h 97% 2.03 mm meteobridge W/m2
10:24 9.6 °C 9.1 °C 1012.4 hPa SSE 1.4 km/h 9.7 km/h 97% 1.78 mm meteobridge W/m2
10:29 9.6 °C 9 °C 1012.4 hPa Calm   11.3 km/h 96% 1.78 mm meteobridge W/m2
10:34 9.6 °C 9.1 °C 1012.4 hPa Calm   3.2 km/h 97% 1.78 mm meteobridge W/m2
10:39 9.5 °C 8.9 °C 1012.1 hPa ESE 1.4 km/h 8 km/h 96% 1.27 mm meteobridge W/m2
10:44 9.5 °C 9 °C 1012.1 hPa SE 3.2 km/h 9.7 km/h 97% 1.27 mm meteobridge W/m2
10:49 9.4 °C 8.9 °C 1012.4 hPa SE 3.2 km/h 3.2 km/h 97% 1.52 mm meteobridge W/m2
10:54 9.4 °C 8.9 °C 1012.4 hPa ESE 3.2 km/h 6.4 km/h 97% 1.78 mm meteobridge W/m2
10:59 9.4 °C 8.9 °C 1012.1 hPa Calm   8 km/h 97% 2.29 mm meteobridge W/m2
11:04 9.4 °C 8.9 °C 1012.1 hPa Calm   6.4 km/h 97% 2.29 mm meteobridge W/m2
11:09 9.4 °C 8.9 °C 1011.7 hPa Calm   6.4 km/h 97% 2.79 mm meteobridge W/m2
11:14 9.5 °C 9.2 °C 1011.7 hPa Calm     98% 2.79 mm meteobridge W/m2
11:19 9.5 °C 9 °C 1011.7 hPa Calm     97% 2.79 mm meteobridge W/m2
11:24 9.6 °C 9.1 °C 1011.7 hPa Calm   8 km/h 97% 2.54 mm meteobridge W/m2
11:29 9.6 °C 9.1 °C 1011.7 hPa Calm   12.9 km/h 97% 2.54 mm meteobridge W/m2
11:34 9.6 °C 9.1 °C 1011.4 hPa SE 6.4 km/h 8 km/h 97% 2.54 mm meteobridge W/m2
11:39 9.6 °C 9.1 °C 1011.7 hPa Calm   1.6 km/h 97% 2.54 mm meteobridge W/m2
11:44 9.6 °C 9.1 °C 1011.4 hPa Calm   6.4 km/h 97% 2.29 mm meteobridge W/m2
11:49 9.6 °C 9.1 °C 1011.4 hPa Calm     97% 2.29 mm meteobridge W/m2
11:54 9.6 °C 9.1 °C 1011.1 hPa Calm   3.2 km/h 97% 1.78 mm meteobridge W/m2
11:59 9.6 °C 9.3 °C 1010.7 hPa Calm   9.7 km/h 98% 1.27 mm meteobridge W/m2
12:04 9.6 °C 9.3 °C 1010.7 hPa Calm   1.6 km/h 98% 1.27 mm meteobridge W/m2
12:09 9.8 °C 9.5 °C 1010.7 hPa Calm   3.2 km/h 98% 0.51 mm meteobridge W/m2
12:14 9.9 °C 9.6 °C 1010.7 hPa Calm   8 km/h 98% 0.51 mm meteobridge W/m2
12:19 10 °C 9.7 °C 1010.7 hPa Calm   6.4 km/h 98% 0.51 mm meteobridge W/m2
12:24 10 °C 9.7 °C 1010.7 hPa Calm     98% 0.76 mm meteobridge W/m2
12:29 10 °C 9.7 °C 1010.4 hPa Calm   3.2 km/h 98% 1.02 mm meteobridge W/m2
12:34 10.2 °C 10 °C 1010 hPa Calm   3.2 km/h 99% 1.52 mm meteobridge W/m2
12:39 10.3 °C 10.1 °C 1009.4 hPa Calm   1.6 km/h 99% 2.54 mm meteobridge W/m2
12:44 10.3 °C 10.1 °C 1009.4 hPa Calm     99% 3.05 mm meteobridge W/m2
12:49 10.2 °C 10 °C 1009 hPa Calm     99% 3.05 mm meteobridge W/m2
12:54 10.1 °C 9.8 °C 1008.7 hPa Calm   3.2 km/h 98% 3.81 mm meteobridge W/m2
12:59 9.9 °C 9.6 °C 1008.7 hPa ESE 1.4 km/h 3.2 km/h 98% 4.06 mm meteobridge W/m2
13:04 9.9 °C 9.6 °C 1008.4 hPa Calm     98% 3.81 mm meteobridge W/m2
13:09 9.8 °C 9.5 °C 1008 hPa Calm   3.2 km/h 98% 4.06 mm meteobridge W/m2
13:14 9.7 °C 9.4 °C 1008 hPa Calm   3.2 km/h 98% 4.32 mm meteobridge W/m2
13:19 9.6 °C 9.3 °C 1008 hPa Calm   1.6 km/h 98% 4.32 mm meteobridge W/m2
13:24 9.6 °C 9.3 °C 1007.7 hPa Calm   6.4 km/h 98% 4.06 mm meteobridge W/m2
13:29 9.6 °C 9.3 °C 1007.3 hPa ESE 1.4 km/h 3.2 km/h 98% 4.32 mm meteobridge W/m2
13:34 9.6 °C 9.3 °C 1007 hPa SE 1.4 km/h 3.2 km/h 98% 3.81 mm meteobridge W/m2
13:39 9.9 °C 9.7 °C 1007 hPa Calm     99% 3.3 mm meteobridge W/m2
13:44 10.4 °C 10.2 °C 1006.7 hPa Calm   12.9 km/h 99% 3.05 mm meteobridge W/m2
13:49 11.6 °C 11.6 °C 1006.7 hPa SE 3.2 km/h 6.4 km/h 100% 2.79 mm meteobridge W/m2
13:54 12.4 °C 12.4 °C 1006.3 hPa SE 6.4 km/h 9.7 km/h 100% 2.29 mm meteobridge W/m2
13:59 12.7 °C 12.7 °C 1006.3 hPa ESE 6.4 km/h 11.3 km/h 100% 1.78 mm meteobridge W/m2
14:04 12.9 °C 12.9 °C 1006.3 hPa SE 6.4 km/h 8 km/h 100% 1.52 mm meteobridge W/m2
14:09 12.9 °C 12.7 °C 1006 hPa SSW 3.2 km/h 11.3 km/h 99% 1.52 mm meteobridge W/m2
14:14 13.1 °C 12.8 °C 1005.6 hPa SSE 9.7 km/h 12.9 km/h 98% 1.52 mm meteobridge W/m2
14:19 13.2 °C 12.9 °C 1005.6 hPa ESE 3.2 km/h 8 km/h 98% 1.78 mm meteobridge W/m2
14:24 13.2 °C 12.9 °C 1005.6 hPa Calm   9.7 km/h 98% 1.78 mm meteobridge W/m2
14:29 13.2 °C 12.9 °C 1005.3 hPa Calm   8 km/h 98% 1.27 mm meteobridge W/m2
14:34 13.2 °C 12.7 °C 1005.3 hPa SSE 1.4 km/h 11.3 km/h 97% 1.02 mm meteobridge W/m2
14:39 13.3 °C 12.8 °C 1005 hPa Calm   9.7 km/h 97% 1.02 mm meteobridge W/m2
14:44 13.4 °C 12.9 °C 1005 hPa Calm   1.6 km/h 97% 0.76 mm meteobridge W/m2
14:49 13.3 °C 12.8 °C 1004.6 hPa Calm     97% 1.02 mm meteobridge W/m2
14:54 13.4 °C 12.9 °C 1004.6 hPa Calm   1.6 km/h 97% 1.02 mm meteobridge W/m2
14:59 13.4 °C 13.1 °C 1004.6 hPa Calm   3.2 km/h 98% 1.02 mm meteobridge W/m2
15:04 13.4 °C 13.1 °C 1004.3 hPa Calm   8 km/h 98% 1.27 mm meteobridge W/m2
15:09 13.4 °C 13.1 °C 1004.3 hPa SE 1.4 km/h 8 km/h 98% 1.52 mm meteobridge W/m2
15:14 13.6 °C 13.3 °C 1004.3 hPa SE 6.4 km/h 8 km/h 98% 1.52 mm meteobridge W/m2
15:19 13.6 °C 13.1 °C 1004.3 hPa SE 3.2 km/h 8 km/h 97% 1.52 mm meteobridge W/m2
15:24 13.6 °C 13.1 °C 1003.9 hPa Calm   6.4 km/h 97% 1.52 mm meteobridge W/m2
15:29 13.6 °C 13.1 °C 1003.9 hPa SE 11.1 km/h 12.9 km/h 97% 1.78 mm meteobridge W/m2
15:34 13.7 °C 13.2 °C 1003.9 hPa East 6.4 km/h 9.7 km/h 97% 1.78 mm meteobridge W/m2
15:39 13.8 °C 13.3 °C 1003.6 hPa ESE 3.2 km/h 3.2 km/h 97% 1.78 mm meteobridge W/m2
15:44 13.8 °C 13.3 °C 1003.3 hPa East 3.2 km/h 9.7 km/h 97% 1.78 mm meteobridge W/m2
15:49 13.8 °C 13.3 °C 1002.9 hPa Calm   1.6 km/h 97% 2.03 mm meteobridge W/m2
15:54 13.8 °C 13.3 °C 1002.6 hPa Calm   3.2 km/h 97% 2.03 mm meteobridge W/m2
15:59 13.9 °C 13.4 °C 1002.9 hPa Calm     97% 1.78 mm meteobridge W/m2
16:04 14 °C 13.5 °C 1002.6 hPa Calm     97% 1.78 mm meteobridge W/m2
16:09 14.1 °C 13.5 °C 1002.9 hPa Calm     96% 1.78 mm meteobridge W/m2
16:14 14.2 °C 13.6 °C 1002.6 hPa Calm     96% 1.52 mm meteobridge W/m2
16:19 14.2 °C 13.6 °C 1002.6 hPa Calm     96% 1.27 mm meteobridge W/m2
16:24 14.2 °C 13.6 °C 1002.6 hPa Calm     96% 1.52 mm meteobridge W/m2
16:29 14.2 °C 13.6 °C 1002.3 hPa Calm     96% 1.27 mm meteobridge W/m2
16:34 14.2 °C 13.6 °C 1002.3 hPa Calm     96% 1.27 mm meteobridge W/m2
16:39 14.2 °C 13.6 °C 1001.9 hPa Calm     96% 1.27 mm meteobridge W/m2
16:44 14.2 °C 13.6 °C 1001.9 hPa Calm     96% 1.27 mm meteobridge W/m2
16:49 14.3 °C 13.7 °C 1001.9 hPa Calm     96% 1.27 mm meteobridge W/m2
16:54 14.3 °C 13.7 °C 1001.9 hPa Calm     96% 1.02 mm meteobridge W/m2
16:59 14.3 °C 13.7 °C 1001.9 hPa Calm     96% 1.27 mm meteobridge W/m2
17:04 14.3 °C 13.7 °C 1001.9 hPa Calm     96% 1.52 mm meteobridge W/m2
17:09 14.2 °C 13.6 °C 1001.6 hPa Calm     96% 1.78 mm meteobridge W/m2
17:14 14.2 °C 13.7 °C 1001.6 hPa Calm     97% 2.29 mm meteobridge W/m2
17:19 14.1 °C 13.6 °C 1001.6 hPa Calm     97% 2.29 mm meteobridge W/m2
17:24 14.1 °C 13.5 °C 1001.6 hPa Calm     96% 2.29 mm meteobridge W/m2
17:29 14.1 °C 13.6 °C 1001.9 hPa Calm     97% 3.05 mm meteobridge W/m2
17:34 14 °C 13.5 °C 1001.6 hPa Calm     97% 3.56 mm meteobridge W/m2
17:39 13.9 °C 13.4 °C 1001.6 hPa Calm     97% 3.56 mm meteobridge W/m2
17:44 13.9 °C 13.4 °C 1001.6 hPa Calm     97% 3.56 mm meteobridge W/m2
17:49 13.9 °C 13.4 °C 1001.2 hPa Calm     97% 3.3 mm meteobridge W/m2
17:54 13.9 °C 13.4 °C 1001.2 hPa Calm     97% 3.56 mm meteobridge W/m2
17:59 13.8 °C 13.5 °C 1001.2 hPa Calm     98% 3.81 mm meteobridge W/m2
18:04 13.9 °C 13.4 °C 1001.6 hPa Calm     97% 3.81 mm meteobridge W/m2
18:09 13.8 °C 13.5 °C 1001.2 hPa Calm     98% 4.57 mm meteobridge W/m2
18:14 13.8 °C 13.5 °C 1001.2 hPa Calm     98% 5.08 mm meteobridge W/m2
18:19 13.8 °C 13.5 °C 1001.2 hPa Calm     98% 5.59 mm meteobridge W/m2
18:24 13.7 °C 13.4 °C 1001.2 hPa Calm     98% 6.86 mm meteobridge W/m2
18:29 13.6 °C 13.3 °C 1001.6 hPa Calm     98% 7.37 mm meteobridge W/m2
18:34 13.6 °C 13.3 °C 1001.9 hPa Calm     98% 7.87 mm meteobridge W/m2
18:39 13.6 °C 13.3 °C 1001.6 hPa Calm     98% 8.89 mm meteobridge W/m2
18:44 13.4 °C 13.1 °C 1001.6 hPa Calm     98% 10.16 mm meteobridge W/m2
18:49 13.4 °C 13.1 °C 1001.6 hPa Calm     98% 10.92 mm meteobridge W/m2
18:54 13.3 °C 13 °C 1001.2 hPa Calm     98% 11.68 mm meteobridge W/m2
18:59 13.3 °C 13 °C 1000.2 hPa Calm     98% 11.43 mm meteobridge W/m2
19:04 13.2 °C 12.9 °C 1000.2 hPa Calm     98% 11.18 mm meteobridge W/m2
19:09 13.2 °C 12.9 °C 1000.6 hPa Calm     98% 10.41 mm meteobridge W/m2
19:14 13.2 °C 13 °C 1000.9 hPa Calm     99% 9.14 mm meteobridge W/m2
19:19 13.2 °C 12.9 °C 1000.9 hPa Calm     98% 8.13 mm meteobridge W/m2
19:24 13.2 °C 12.9 °C 1001.2 hPa Calm     98% 7.11 mm meteobridge W/m2
19:29 13.2 °C 12.9 °C 1001.2 hPa Calm     98% 5.84 mm meteobridge W/m2
19:34 13.2 °C 12.9 °C 1001.2 hPa Calm     98% 4.83 mm meteobridge W/m2
19:39 13.2 °C 12.9 °C 1001.2 hPa Calm     98% 3.56 mm meteobridge W/m2
19:44 13.2 °C 12.9 °C 1001.6 hPa Calm     98% 2.54 mm meteobridge W/m2
19:49 13.1 °C 12.8 °C 1001.6 hPa Calm     98% 1.78 mm meteobridge W/m2
19:54 13.1 °C 12.8 °C 1001.6 hPa Calm     98% 1.02 mm meteobridge W/m2
19:59 13 °C 12.7 °C 1001.6 hPa Calm     98% 0.51 mm meteobridge W/m2
20:04 12.9 °C 12.6 °C 1001.9 hPa Calm     98% 0.51 mm meteobridge W/m2
20:09 12.9 °C 12.7 °C 1001.9 hPa Calm     99% 0.25 mm meteobridge W/m2
20:14 13 °C 12.8 °C 1001.9 hPa Calm     99% 0.25 mm meteobridge W/m2
20:19 12.9 °C 12.7 °C 1001.6 hPa Calm     99% 0.25 mm meteobridge W/m2
20:24 13 °C 12.8 °C 1001.9 hPa Calm     99% 0.25 mm meteobridge W/m2
20:29 12.9 °C 12.6 °C 1001.9 hPa Calm     98% 0.25 mm meteobridge W/m2
20:34 12.9 °C 12.6 °C 1001.9 hPa Calm     98% 0.25 mm meteobridge W/m2
20:39 12.8 °C 12.3 °C 1001.9 hPa Calm     97% 0.25 mm meteobridge W/m2
20:44 12.6 °C 12.1 °C 1001.6 hPa Calm     97% 0 mm meteobridge W/m2
20:49 12.4 °C 11.8 °C 1001.6 hPa Calm     96% 0 mm meteobridge W/m2
20:54 12.2 °C 11.6 °C 1001.6 hPa Calm     96% 0 mm meteobridge W/m2
20:59 12.2 °C 11.6 °C 1001.6 hPa Calm     96% 0 mm meteobridge W/m2
21:04 12.1 °C 11.6 °C 1001.6 hPa Calm     97% 0 mm meteobridge W/m2
21:09 11.9 °C 11.4 °C 1001.6 hPa Calm     97% 0 mm meteobridge W/m2
21:14 11.8 °C 11.3 °C 1001.2 hPa Calm     97% 0 mm meteobridge W/m2
21:19 11.7 °C 11.2 °C 1001.6 hPa Calm     97% 0 mm meteobridge W/m2
21:24 11.7 °C 11.2 °C 1001.6 hPa Calm     97% 0 mm meteobridge W/m2
21:29 11.6 °C 11.3 °C 1001.2 hPa Calm     98% 0 mm meteobridge W/m2
21:34 11.6 °C 11.1 °C 1001.6 hPa Calm     97% 0 mm meteobridge W/m2
21:39 11.4 °C 10.9 °C 1001.6 hPa Calm     97% 0.25 mm meteobridge W/m2
21:44 11.3 °C 10.7 °C 1001.6 hPa Calm     96% 0.25 mm meteobridge W/m2
21:49 11.1 °C 10.6 °C 1001.6 hPa Calm     97% 0.25 mm meteobridge W/m2
21:54 11 °C 10.4 °C 1001.6 hPa Calm     96% 0.25 mm meteobridge W/m2
21:59 10.9 °C 10.4 °C 1001.6 hPa Calm     97% 0.25 mm meteobridge W/m2
22:04 10.8 °C 10.3 °C 1001.6 hPa Calm     97% 0.25 mm meteobridge W/m2
22:09 10.7 °C 10.2 °C 1001.6 hPa Calm     97% 0.25 mm meteobridge W/m2
22:14 10.6 °C 10.1 °C 1001.6 hPa Calm     97% 0.25 mm meteobridge W/m2
22:19 10.6 °C 10.1 °C 1001.6 hPa Calm     97% 0.25 mm meteobridge W/m2
22:24 10.6 °C 10.1 °C 1001.6 hPa Calm     97% 0.25 mm meteobridge W/m2
22:29 10.6 °C 10.1 °C 1001.9 hPa Calm     97% 0.25 mm meteobridge W/m2
22:34 10.6 °C 10.3 °C 1001.9 hPa Calm     98% 0.25 mm meteobridge W/m2
22:39 10.5 °C 10.2 °C 1001.9 hPa Calm     98% 0 mm meteobridge W/m2
22:44 10.4 °C 10.1 °C 1001.9 hPa Calm     98% 0 mm meteobridge W/m2
22:49 10.4 °C 10.1 °C 1002.3 hPa Calm     98% 0 mm meteobridge W/m2
22:54 10.4 °C 9.9 °C 1001.9 hPa Calm     97% 0 mm meteobridge W/m2
22:59 10.4 °C 9.9 °C 1001.9 hPa Calm     97% 0 mm meteobridge W/m2
23:04 10.4 °C 9.9 °C 1002.3 hPa Calm     97% 0 mm meteobridge W/m2
23:09 10.3 °C 9.8 °C 1002.3 hPa Calm     97% 0 mm meteobridge W/m2
23:14 10.1 °C 9.5 °C 1002.3 hPa Calm     96% 0 mm meteobridge W/m2
23:19 10 °C 9.2 °C 1002.3 hPa Calm     95% 0 mm meteobridge W/m2
23:24 9.9 °C 9.1 °C 1002.6 hPa Calm     95% 0 mm meteobridge W/m2
23:29 9.8 °C 8.9 °C 1002.6 hPa Calm     94% 0 mm meteobridge W/m2
23:34 9.6 °C 8.8 °C 1002.6 hPa Calm     95% 0 mm meteobridge W/m2
23:39 9.3 °C 8.4 °C 1002.9 hPa Calm     94% 0 mm meteobridge W/m2
23:44 9 °C 7.8 °C 1002.9 hPa Calm     92% 0 mm meteobridge W/m2
23:49 8.8 °C 7.7 °C 1002.9 hPa Calm     93% 0 mm meteobridge W/m2
23:54 8.6 °C 7.7 °C 1003.3 hPa Calm     94% 0 mm meteobridge W/m2
23:59 8.3 °C 7.2 °C 1003.3 hPa Calm     93% 0 mm meteobridge W/m2
EllijayWeather
Compliments of Weather Underground - 2.5 mb